createdAt,value
2018-12-05T00:01:48.817Z,15.70
2018-12-05T00:04:16.859Z,18.87
2018-12-05T00:06:44.918Z,18.37
2018-12-05T00:09:13.109Z,20.80
2018-12-05T00:11:41.176Z,20.17
2018-12-05T00:14:09.254Z,19.23
2018-12-05T00:16:37.338Z,17.63
2018-12-05T00:19:05.376Z,19.57
2018-12-05T00:21:34.055Z,16.90
2018-12-05T00:24:03.007Z,18.30
2018-12-05T00:26:31.057Z,22.20
2018-12-05T00:28:59.118Z,18.23
2018-12-05T00:31:27.204Z,17.13
2018-12-05T00:33:55.258Z,15.00
2018-12-05T00:36:23.316Z,15.60
2018-12-05T00:38:51.427Z,17.33
2018-12-05T00:41:19.502Z,19.30
2018-12-05T00:43:47.552Z,16.90
2018-12-05T00:46:15.697Z,19.20
2018-12-05T00:48:43.750Z,18.93
2018-12-05T00:51:11.788Z,18.20
2018-12-05T00:53:40.388Z,18.70
2018-12-05T00:56:08.439Z,19.03
2018-12-05T00:58:36.466Z,19.10
2018-12-05T01:01:04.629Z,17.77
2018-12-05T01:03:32.691Z,17.30
2018-12-05T01:06:00.746Z,16.50
2018-12-05T01:08:28.834Z,17.40
2018-12-05T01:10:56.904Z,16.73
2018-12-05T01:13:25.275Z,16.27
2018-12-05T01:15:53.447Z,17.63
2018-12-05T01:18:21.520Z,16.90
2018-12-05T01:20:49.599Z,17.63
2018-12-05T01:23:18.360Z,16.63
2018-12-05T01:25:47.035Z,15.70
2018-12-05T01:28:15.334Z,15.77
2018-12-05T01:30:43.407Z,18.97
2018-12-05T01:33:11.511Z,13.80
2018-12-05T01:35:39.771Z,13.23
2018-12-05T01:38:07.831Z,18.53
2018-12-05T01:40:35.890Z,14.60
2018-12-05T01:43:03.993Z,19.13
2018-12-05T01:45:32.167Z,20.33
2018-12-05T01:48:00.209Z,18.83
2018-12-05T01:50:28.317Z,17.90
2018-12-05T01:52:56.375Z,18.33
2018-12-05T01:55:24.458Z,19.77
2018-12-05T01:57:52.519Z,15.97
2018-12-05T02:00:20.554Z,16.20
2018-12-05T02:02:49.223Z,14.00
2018-12-05T02:05:18.086Z,15.77
2018-12-05T02:07:47.171Z,18.23
2018-12-05T02:10:15.256Z,20.80
2018-12-05T02:12:43.287Z,24.20
2018-12-05T02:15:11.400Z,25.40
2018-12-05T02:17:39.460Z,26.03
2018-12-05T02:20:07.647Z,32.87
2018-12-05T02:22:36.127Z,33.73
2018-12-05T02:25:04.640Z,29.07
2018-12-05T02:27:32.675Z,25.73
2018-12-05T02:30:00.951Z,24.33
2018-12-05T02:32:29.036Z,29.57
2018-12-05T02:34:57.941Z,30.10
2018-12-05T02:37:26.212Z,33.30
2018-12-05T02:39:54.247Z,30.33
2018-12-05T02:42:22.306Z,42.57
2018-12-05T02:44:50.444Z,64.67
2018-12-05T02:47:18.593Z,69.13
2018-12-05T02:49:47.139Z,26.87
2018-12-05T02:52:15.255Z,33.83
2018-12-05T02:54:43.327Z,30.23
2018-12-05T02:57:11.606Z,32.33
2018-12-05T02:59:40.088Z,27.70
2018-12-05T03:02:08.137Z,30.70
2018-12-05T03:04:36.349Z,32.50
2018-12-05T03:07:04.444Z,74.57
2018-12-05T03:09:32.587Z,124.83
2018-12-05T03:12:01.516Z,49.93
2018-12-05T03:14:29.652Z,81.57
2018-12-05T03:16:57.709Z,106.30
2018-12-05T03:19:25.748Z,112.43
2018-12-05T03:21:53.820Z,92.60
2018-12-05T03:24:22.680Z,95.87
2018-12-05T03:26:50.728Z,55.80
2018-12-05T03:29:18.872Z,41.47
2018-12-05T03:31:46.896Z,103.77
2018-12-05T03:34:15.058Z,54.13
2018-12-05T03:36:43.100Z,45.90
2018-12-05T03:39:11.157Z,61.73
2018-12-05T03:41:39.272Z,73.53
2018-12-05T03:44:07.370Z,34.87
2018-12-05T03:46:35.653Z,71.73
2018-12-05T03:49:03.696Z,101.40
2018-12-05T03:51:31.985Z,84.77
2018-12-05T03:54:00.054Z,87.77
2018-12-05T03:56:28.116Z,35.83
2018-12-05T03:58:57.185Z,33.23
2018-12-05T04:01:25.413Z,33.80
2018-12-05T04:03:53.448Z,37.83
2018-12-05T04:06:21.495Z,34.60
2018-12-05T04:08:49.965Z,33.03
2018-12-05T04:11:18.031Z,53.13
2018-12-05T04:13:46.700Z,34.43
2018-12-05T04:16:14.763Z,30.27
2018-12-05T04:18:42.818Z,50.13
2018-12-05T04:21:11.106Z,28.97
2018-12-05T04:23:39.165Z,23.57
2018-12-05T04:26:07.211Z,26.83
2018-12-05T04:28:35.504Z,27.70
2018-12-05T04:31:03.558Z,26.07
2018-12-05T04:33:32.747Z,29.93
2018-12-05T04:36:00.834Z,29.27
2018-12-05T04:38:28.913Z,27.20
2018-12-05T04:40:57.175Z,28.53
2018-12-05T04:43:25.858Z,24.27
2018-12-05T04:45:53.898Z,27.93
2018-12-05T04:48:22.044Z,25.97
2018-12-05T04:50:50.119Z,27.90
2018-12-05T04:53:18.783Z,26.17
2018-12-05T04:55:46.890Z,22.97
2018-12-05T04:58:14.927Z,28.10
2018-12-05T05:00:42.966Z,27.07
2018-12-05T05:03:11.038Z,27.53
2018-12-05T05:05:39.328Z,25.00
2018-12-05T05:08:07.463Z,25.90
2018-12-05T05:10:35.535Z,24.60
2018-12-05T05:13:03.604Z,29.13
2018-12-05T05:15:32.344Z,25.70
2018-12-05T05:18:00.431Z,28.90
2018-12-05T05:20:28.483Z,27.63
2018-12-05T05:22:56.523Z,27.53
2018-12-05T05:25:24.611Z,23.37
2018-12-05T05:27:52.673Z,30.27
2018-12-05T05:30:20.745Z,26.00
2018-12-05T05:32:50.530Z,28.37
2018-12-05T05:35:18.683Z,26.47
2018-12-05T05:37:46.744Z,25.57
2018-12-05T05:40:14.889Z,28.20
2018-12-05T05:42:43.276Z,30.50
2018-12-05T05:45:11.328Z,26.10
2018-12-05T05:47:39.387Z,27.17
2018-12-05T05:50:08.691Z,26.73
2018-12-05T05:52:36.728Z,29.43
2018-12-05T05:55:05.458Z,29.27
2018-12-05T05:57:34.127Z,24.90
2018-12-05T06:00:02.183Z,32.63
2018-12-05T06:02:30.856Z,26.40
2018-12-05T06:04:59.835Z,28.97
2018-12-05T06:07:27.976Z,23.20
2018-12-05T06:09:56.465Z,24.63
2018-12-05T06:12:24.951Z,21.97
2018-12-05T06:14:53.020Z,21.73
2018-12-05T06:17:21.094Z,24.83
2018-12-05T06:19:49.664Z,25.00
2018-12-05T06:22:17.711Z,25.57
2018-12-05T06:24:45.810Z,22.53
2018-12-05T06:27:13.856Z,26.77
2018-12-05T06:29:41.907Z,24.07
2018-12-05T06:32:09.973Z,23.03
2018-12-05T06:34:38.827Z,24.13
2018-12-05T06:37:06.875Z,29.43
2018-12-05T06:39:34.971Z,26.77
2018-12-05T06:42:03.025Z,25.47
2018-12-05T06:44:31.083Z,29.27
2018-12-05T06:46:59.308Z,24.07
2018-12-05T06:49:27.351Z,24.67
2018-12-05T06:51:56.098Z,24.37
2018-12-05T06:54:24.124Z,27.57
2018-12-05T06:56:52.625Z,27.67
2018-12-05T06:59:20.728Z,24.00
2018-12-05T07:01:48.759Z,26.57
2018-12-05T07:04:17.443Z,22.43
2018-12-05T07:06:45.932Z,23.47
2018-12-05T07:09:13.987Z,23.87
2018-12-05T07:11:42.079Z,23.80
2018-12-05T07:14:10.129Z,22.17
2018-12-05T07:16:38.183Z,24.63
2018-12-05T07:19:06.235Z,24.00
2018-12-05T07:21:34.830Z,29.20
2018-12-05T07:24:02.895Z,25.10
2018-12-05T07:26:31.036Z,27.70
2018-12-05T07:28:59.080Z,25.57
2018-12-05T07:31:27.337Z,27.57
2018-12-05T07:33:56.448Z,24.87
2018-12-05T07:36:25.159Z,29.50
2018-12-05T07:38:53.203Z,26.60
2018-12-05T07:41:21.247Z,23.97
2018-12-05T07:43:49.363Z,25.53
2018-12-05T07:46:18.350Z,26.63
2018-12-05T07:48:46.544Z,26.27
2018-12-05T07:51:15.012Z,23.17
2018-12-05T07:53:43.094Z,25.30
2018-12-05T07:56:11.164Z,24.80
2018-12-05T07:58:39.940Z,27.07
2018-12-05T08:01:08.546Z,24.97
2018-12-05T08:03:36.703Z,24.80
2018-12-05T08:06:05.174Z,27.47
2018-12-05T08:08:33.270Z,27.47
2018-12-05T08:11:01.328Z,26.00
2018-12-05T08:13:29.422Z,24.40
2018-12-05T08:15:57.504Z,25.80
2018-12-05T08:18:27.207Z,23.57
2018-12-05T08:20:55.256Z,23.43
2018-12-05T08:23:23.327Z,20.27
2018-12-05T08:25:51.368Z,25.30
2018-12-05T08:28:20.059Z,23.40
2018-12-05T08:30:48.098Z,22.07
2018-12-05T08:33:16.164Z,20.97
2018-12-05T08:35:44.220Z,26.10
2018-12-05T08:38:12.351Z,33.20
2018-12-05T08:40:40.476Z,33.43
2018-12-05T08:43:08.540Z,29.70
2018-12-05T08:45:36.603Z,24.70
2018-12-05T08:48:04.650Z,25.20
2018-12-05T08:50:32.711Z,24.60
2018-12-05T08:53:00.847Z,22.93
2018-12-05T08:55:28.887Z,20.13
2018-12-05T08:57:56.961Z,23.27
2018-12-05T09:00:25.508Z,22.53
2018-12-05T09:02:53.551Z,23.80
2018-12-05T09:05:21.600Z,26.00
2018-12-05T09:07:49.668Z,23.77
2018-12-05T09:10:17.712Z,21.40
2018-12-05T09:12:45.792Z,18.77
2018-12-05T09:15:13.848Z,20.40
2018-12-05T09:17:41.914Z,21.23
2018-12-05T09:20:10.016Z,26.57
2018-12-05T09:22:41.480Z,20.47
2018-12-05T09:25:08.253Z,23.27
2018-12-05T09:27:36.309Z,22.07
2018-12-05T09:30:05.008Z,20.60
2018-12-05T09:32:33.054Z,26.23
2018-12-05T09:35:01.109Z,24.90
2018-12-05T09:37:29.328Z,22.37
2018-12-05T09:39:57.395Z,22.23
2018-12-05T09:42:25.528Z,19.60
2018-12-05T09:44:53.763Z,19.90
2018-12-05T09:47:21.830Z,21.83
2018-12-05T09:49:49.899Z,20.47
2018-12-05T09:52:18.078Z,19.80
2018-12-05T09:54:46.144Z,18.70
2018-12-05T09:57:14.210Z,19.20
2018-12-05T09:59:42.319Z,20.73
2018-12-05T10:02:10.386Z,22.40
2018-12-05T10:04:38.455Z,18.80
2018-12-05T10:07:06.515Z,20.00
2018-12-05T10:09:34.689Z,24.03
2018-12-05T10:12:02.771Z,19.67
2018-12-05T10:14:31.655Z,25.63
2018-12-05T10:17:00.723Z,22.30
2018-12-05T10:19:28.923Z,21.13
2018-12-05T10:21:57.619Z,23.03
2018-12-05T10:24:25.694Z,20.73
2018-12-05T10:26:53.964Z,19.93
2018-12-05T10:29:22.845Z,23.10
2018-12-05T10:31:50.906Z,19.70
2018-12-05T10:34:18.967Z,21.10
2018-12-05T10:36:47.643Z,21.63
2018-12-05T10:39:15.760Z,21.87
2018-12-05T10:41:43.806Z,18.97
2018-12-05T10:44:11.853Z,20.40
2018-12-05T10:46:40.350Z,22.50
2018-12-05T10:49:08.574Z,20.93
2018-12-05T10:51:36.703Z,21.60
2018-12-05T10:54:05.020Z,21.03
2018-12-05T10:56:33.090Z,22.87
2018-12-05T10:59:01.132Z,22.13
2018-12-05T11:01:35.550Z,34.20
2018-12-05T11:04:05.328Z,21.97
2018-12-05T11:06:38.921Z,26.33
2018-12-05T11:12:19.500Z,19.70
2018-12-05T11:14:53.183Z,25.30
2018-12-05T11:17:26.706Z,21.20
2018-12-05T11:19:57.219Z,22.80
2018-12-05T11:22:31.035Z,23.67
2018-12-05T11:25:01.645Z,21.23
2018-12-05T11:27:30.558Z,20.63
2018-12-05T11:29:58.682Z,22.80
2018-12-05T11:32:26.918Z,25.13
2018-12-05T11:34:54.963Z,19.67
2018-12-05T11:37:23.064Z,21.10
2018-12-05T11:39:51.362Z,21.53
2018-12-05T11:42:19.403Z,20.10
2018-12-05T11:44:47.486Z,20.80
2018-12-05T11:47:15.555Z,20.23
2018-12-05T11:49:44.232Z,18.00
2018-12-05T11:52:13.039Z,17.93
2018-12-05T11:54:41.104Z,18.67
2018-12-05T11:57:09.182Z,21.93
2018-12-05T11:59:37.259Z,19.30
2018-12-05T12:02:05.424Z,17.53
2018-12-05T12:04:33.480Z,17.70
2018-12-05T12:07:01.877Z,19.17
2018-12-05T12:09:30.451Z,20.63
2018-12-05T12:11:58.539Z,20.40
2018-12-05T12:14:27.366Z,19.00
2018-12-05T12:16:55.389Z,18.33
2018-12-05T12:19:23.447Z,19.27
2018-12-05T12:21:51.492Z,19.10
2018-12-05T12:24:19.639Z,20.80
2018-12-05T12:26:47.713Z,22.50
2018-12-05T12:29:15.772Z,18.60
2018-12-05T12:31:43.845Z,18.37
2018-12-05T12:34:11.904Z,20.10
2018-12-05T12:36:39.949Z,21.47
2018-12-05T12:39:08.156Z,23.67
2018-12-05T12:41:36.188Z,25.67
2018-12-05T12:44:04.516Z,18.70
2018-12-05T12:46:32.684Z,17.57
2018-12-05T12:49:00.767Z,18.73
2018-12-05T12:51:28.839Z,21.77
2018-12-05T12:53:56.902Z,19.73
2018-12-05T12:56:24.952Z,24.30
2018-12-05T12:58:53.215Z,19.87
2018-12-05T13:01:21.326Z,24.03
2018-12-05T13:03:49.402Z,26.43
2018-12-05T13:06:17.479Z,19.57
2018-12-05T13:08:45.650Z,23.87
2018-12-05T13:11:13.702Z,23.30
2018-12-05T13:13:41.764Z,21.00
2018-12-05T13:16:10.872Z,23.00
2018-12-05T13:18:38.960Z,21.20
2018-12-05T13:21:07.120Z,22.70
2018-12-05T13:23:35.219Z,24.60
2018-12-05T13:26:03.577Z,21.53
2018-12-05T13:28:31.632Z,24.90
2018-12-05T13:30:59.744Z,22.00
2018-12-05T13:33:27.800Z,22.80
2018-12-05T13:35:56.182Z,24.50
2018-12-05T13:38:24.895Z,27.80
2018-12-05T13:40:52.975Z,23.80
2018-12-05T13:43:21.042Z,23.57
2018-12-05T13:45:49.097Z,24.77
2018-12-05T13:48:17.419Z,24.13
2018-12-05T13:50:45.559Z,23.67
2018-12-05T13:53:13.726Z,25.70
2018-12-05T13:55:42.031Z,24.23
2018-12-05T13:58:10.186Z,28.57
2018-12-05T14:00:39.098Z,28.70
2018-12-05T14:03:07.262Z,25.73
2018-12-05T14:05:35.314Z,23.83
2018-12-05T14:08:03.371Z,22.63
2018-12-05T14:10:31.632Z,23.20
2018-12-05T14:12:59.856Z,23.60
2018-12-05T14:15:28.465Z,25.80
2018-12-05T14:18:01.585Z,23.40
2018-12-05T14:20:27.488Z,27.40
2018-12-05T14:22:55.620Z,27.73
2018-12-05T14:25:23.657Z,22.80
2018-12-05T14:27:51.740Z,23.73
2018-12-05T14:30:19.867Z,22.37
2018-12-05T14:32:48.852Z,20.13
2018-12-05T14:35:16.913Z,24.93
2018-12-05T14:37:45.522Z,23.80
2018-12-05T14:40:13.563Z,22.83
2018-12-05T14:42:41.604Z,20.33
2018-12-05T14:45:09.672Z,20.70
2018-12-05T14:47:37.729Z,18.70
2018-12-05T14:50:06.067Z,18.50
2018-12-05T14:52:34.251Z,24.57
2018-12-05T14:55:02.532Z,21.90
2018-12-05T14:57:30.921Z,21.17
2018-12-05T14:59:59.388Z,20.97
2018-12-05T15:02:27.437Z,21.67
2018-12-05T15:04:55.738Z,19.87
2018-12-05T15:07:23.792Z,22.33
2018-12-05T15:09:52.085Z,23.23
2018-12-05T15:12:20.138Z,17.53
2018-12-05T15:14:48.222Z,21.47
2018-12-05T15:17:16.277Z,21.00
2018-12-05T15:19:44.379Z,26.13
2018-12-05T15:22:12.430Z,22.47
2018-12-05T15:24:40.515Z,24.97
2018-12-05T15:27:09.096Z,21.83
2018-12-05T15:29:37.187Z,20.90
2018-12-05T15:32:05.583Z,21.47
2018-12-05T15:34:33.639Z,23.97
2018-12-05T15:37:01.805Z,22.90
2018-12-05T15:39:29.898Z,24.33
2018-12-05T15:41:58.255Z,22.70
2018-12-05T15:44:26.305Z,25.70
2018-12-05T15:46:54.417Z,23.27
2018-12-05T15:49:22.479Z,22.50
2018-12-05T15:51:50.556Z,23.90
2018-12-05T15:54:18.727Z,19.63
2018-12-05T15:56:47.226Z,27.60
2018-12-05T15:59:15.289Z,20.30
2018-12-05T16:01:43.335Z,19.20
2018-12-05T16:04:11.445Z,26.27
2018-12-05T16:06:40.244Z,20.37
2018-12-05T16:09:08.604Z,25.23
2018-12-05T16:11:37.204Z,24.60
2018-12-05T16:14:05.978Z,18.20
2018-12-05T16:16:36.828Z,18.10
2018-12-05T16:19:05.402Z,18.93
2018-12-05T16:21:33.448Z,15.50
2018-12-05T16:24:01.562Z,17.20
2018-12-05T16:26:30.341Z,17.87
2018-12-05T16:28:58.934Z,20.33
2018-12-05T16:31:27.100Z,17.90
2018-12-05T16:33:55.471Z,19.27
2018-12-05T16:36:23.537Z,14.20
2018-12-05T16:38:51.612Z,16.07
2018-12-05T16:41:19.791Z,16.80
2018-12-05T16:43:47.880Z,18.67
2018-12-05T16:46:15.944Z,17.27
2018-12-05T16:48:44.628Z,16.23
2018-12-05T16:51:13.302Z,16.77
2018-12-05T16:53:41.758Z,19.30
2018-12-05T16:56:10.816Z,17.17
2018-12-05T16:58:38.874Z,15.40
2018-12-05T17:01:07.766Z,19.73
2018-12-05T17:03:36.439Z,16.50
2018-12-05T17:06:05.359Z,12.67
2018-12-05T17:08:33.933Z,19.10
2018-12-05T17:11:01.998Z,19.10
2018-12-05T17:13:30.275Z,15.40
2018-12-05T17:15:58.356Z,16.80
2018-12-05T17:18:26.541Z,16.60
2018-12-05T17:20:54.701Z,14.67
2018-12-05T17:23:22.914Z,18.83
2018-12-05T17:25:51.069Z,17.50
2018-12-05T17:28:19.232Z,14.40
2018-12-05T17:30:47.295Z,18.17
2018-12-05T17:33:15.375Z,17.27
2018-12-05T17:35:43.868Z,19.33
2018-12-05T17:38:12.023Z,16.70
2018-12-05T17:40:40.120Z,18.47
2018-12-05T17:43:08.291Z,19.80
2018-12-05T17:45:36.343Z,21.20
2018-12-05T17:48:04.435Z,19.83
2018-12-05T17:50:32.599Z,23.70
2018-12-05T17:53:00.784Z,23.10
2018-12-05T17:55:28.950Z,17.90
2018-12-05T17:57:57.017Z,20.27
2018-12-05T18:00:25.124Z,22.23
2018-12-05T18:02:53.604Z,19.17
2018-12-05T18:05:21.759Z,20.47
2018-12-05T18:07:49.817Z,21.57
2018-12-05T18:10:17.881Z,22.63
2018-12-05T18:12:46.063Z,21.30
2018-12-05T18:15:14.379Z,21.10
2018-12-05T18:17:43.918Z,19.47
2018-12-05T18:20:12.013Z,21.73
2018-12-05T18:22:40.315Z,24.40
2018-12-05T18:25:08.435Z,23.83
2018-12-05T18:27:36.484Z,22.17
2018-12-05T18:30:05.450Z,20.77
2018-12-05T18:32:33.493Z,20.40
2018-12-05T18:35:02.380Z,27.73
2018-12-05T18:37:30.448Z,21.70
2018-12-05T18:39:58.597Z,24.60
2018-12-05T18:42:26.744Z,21.83
2018-12-05T18:44:54.976Z,22.63
2018-12-05T18:47:23.036Z,24.13
2018-12-05T18:49:51.190Z,23.53
2018-12-05T18:52:19.242Z,22.00
2018-12-05T18:54:47.936Z,17.10
2018-12-05T18:57:16.108Z,23.40
2018-12-05T18:59:44.199Z,23.37
2018-12-05T19:02:12.372Z,24.60
2018-12-05T19:04:40.426Z,19.37
2018-12-05T19:07:08.530Z,23.33
2018-12-05T19:09:36.685Z,20.10
2018-12-05T19:12:04.750Z,20.30
2018-12-05T19:14:38.702Z,21.73
2018-12-05T19:17:06.755Z,19.17
2018-12-05T19:19:34.906Z,20.07
2018-12-05T19:22:03.496Z,22.57
2018-12-05T19:24:31.676Z,20.60
2018-12-05T19:26:59.859Z,21.87
2018-12-05T19:29:27.875Z,22.97
2018-12-05T19:31:56.363Z,24.73
2018-12-05T19:34:24.787Z,22.87
2018-12-05T19:36:53.749Z,28.83
2018-12-05T19:39:21.839Z,29.03
2018-12-05T19:41:50.024Z,27.53
2018-12-05T19:44:18.111Z,27.70
2018-12-05T19:46:46.207Z,26.67
2018-12-05T19:49:14.347Z,31.13
2018-12-05T19:51:42.404Z,24.47
2018-12-05T19:54:10.583Z,22.93
2018-12-05T19:56:38.644Z,24.80
2018-12-05T19:59:06.735Z,24.77
2018-12-05T20:01:34.899Z,22.60
2018-12-05T20:04:03.002Z,20.87
2018-12-05T20:06:31.052Z,19.70
2018-12-05T20:08:59.098Z,16.60
2018-12-05T20:11:27.206Z,23.40
2018-12-05T20:13:55.268Z,19.47
2018-12-05T20:16:23.360Z,19.90
2018-12-05T20:18:51.407Z,19.43
2018-12-05T20:21:19.462Z,19.00
2018-12-05T20:23:47.516Z,20.40
2018-12-05T20:26:15.583Z,18.97
2018-12-05T20:28:43.620Z,22.80
2018-12-05T20:31:11.694Z,24.13
2018-12-05T20:33:39.737Z,23.80
2018-12-05T20:36:07.795Z,20.67
2018-12-05T20:38:35.846Z,24.27
2018-12-05T20:41:03.908Z,21.57
2018-12-05T20:43:31.952Z,20.17
2018-12-05T20:46:00.019Z,20.20
2018-12-05T20:48:28.152Z,23.73
2018-12-05T20:50:56.278Z,25.00
2018-12-05T20:53:24.499Z,20.30
2018-12-05T20:55:52.550Z,19.57
2018-12-05T20:58:21.421Z,24.40
2018-12-05T21:00:49.519Z,21.90
2018-12-05T21:03:17.562Z,21.30
2018-12-05T21:05:45.645Z,24.30
2018-12-05T21:08:13.811Z,24.17
2018-12-05T21:10:41.915Z,25.03
2018-12-05T21:13:09.942Z,26.40
2018-12-05T21:15:38.015Z,20.00
2018-12-05T21:18:06.083Z,24.93
2018-12-05T21:20:34.171Z,23.90
2018-12-05T21:23:02.239Z,24.73
2018-12-05T21:25:30.842Z,22.53
2018-12-05T21:27:58.893Z,25.00
2018-12-05T21:30:27.203Z,21.83
2018-12-05T21:32:55.256Z,22.90
2018-12-05T21:35:23.566Z,20.30
2018-12-05T21:37:51.724Z,26.30
2018-12-05T21:40:19.767Z,23.97
2018-12-05T21:42:47.849Z,23.83
2018-12-05T21:45:15.907Z,24.03
2018-12-05T21:47:44.030Z,24.97
2018-12-05T21:50:12.159Z,28.40
2018-12-05T21:52:40.251Z,23.50
2018-12-05T21:55:08.308Z,24.43
2018-12-05T21:57:36.384Z,30.73
2018-12-05T22:00:05.439Z,29.90
2018-12-05T22:02:33.485Z,30.10
2018-12-05T22:05:01.642Z,28.27
2018-12-05T22:07:29.821Z,30.73
2018-12-05T22:09:58.356Z,27.90
2018-12-05T22:12:26.454Z,38.50
2018-12-05T22:14:54.641Z,31.97
2018-12-05T22:17:22.721Z,37.13
2018-12-05T22:19:50.902Z,36.80
2018-12-05T22:22:18.947Z,28.87
2018-12-05T22:24:47.033Z,29.83
2018-12-05T22:27:15.129Z,25.63
2018-12-05T22:29:43.183Z,25.30
2018-12-05T22:32:11.260Z,24.43
2018-12-05T22:34:39.424Z,35.37
2018-12-05T22:37:07.476Z,36.97
2018-12-05T22:39:36.447Z,29.67
2018-12-05T22:42:04.688Z,24.67
2018-12-05T22:44:32.839Z,29.17
2018-12-05T22:47:01.015Z,25.20
2018-12-05T22:49:29.812Z,27.80
2018-12-05T22:51:57.981Z,25.00
2018-12-05T22:54:26.056Z,21.73
2018-12-05T22:56:59.759Z,23.47
2018-12-05T22:59:27.814Z,22.27
2018-12-05T23:01:56.645Z,19.07
2018-12-05T23:04:24.833Z,22.20
2018-12-05T23:06:52.943Z,26.63
2018-12-05T23:09:22.113Z,29.93
2018-12-05T23:11:50.383Z,38.03
2018-12-05T23:14:18.444Z,36.83
2018-12-05T23:16:46.605Z,36.67
2018-12-05T23:19:15.296Z,31.83
2018-12-05T23:21:43.333Z,35.20
2018-12-05T23:24:12.548Z,46.87
2018-12-05T23:26:40.590Z,44.03
2018-12-05T23:29:08.707Z,34.90
2018-12-05T23:31:36.915Z,25.07
2018-12-05T23:34:04.935Z,20.90
2018-12-05T23:36:33.010Z,21.50
2018-12-05T23:39:01.109Z,22.70
2018-12-05T23:41:29.170Z,21.00
2018-12-05T23:43:57.652Z,22.53
2018-12-05T23:46:25.819Z,19.93
2018-12-05T23:48:53.892Z,21.10
2018-12-05T23:51:22.484Z,20.43
2018-12-05T23:53:50.603Z,20.90
2018-12-05T23:56:18.732Z,18.70
2018-12-05T23:58:46.914Z,21.00
